sensor_id;sensor_type;location;lat;lon;timestamp;pressure;altitude;pressure_sealevel;temperature;humidity
85772;BME280;76212;56.844;41.394;2024-02-23T00:01:37;101136.25;;;-6.03;78.77
85772;BME280;76212;56.844;41.394;2024-02-23T00:04:03;101170.72;;;-5.85;78.89
85772;BME280;76212;56.844;41.394;2024-02-23T00:06:32;101083.66;;;-6.40;78.94
85772;BME280;76212;56.844;41.394;2024-02-23T00:08:58;101166.41;;;-5.85;79.14
85772;BME280;76212;56.844;41.394;2024-02-23T00:11:25;101154.34;;;-5.95;79.26
85772;BME280;76212;56.844;41.394;2024-02-23T00:13:54;101163.81;;;-5.88;79.21
85772;BME280;76212;56.844;41.394;2024-02-23T00:16:20;101163.81;;;-5.85;79.78
85772;BME280;76212;56.844;41.394;2024-02-23T00:18:47;101154.34;;;-5.95;79.14
85772;BME280;76212;56.844;41.394;2024-02-23T00:21:13;101168.97;;;-5.85;79.07
85772;BME280;76212;56.844;41.394;2024-02-23T00:23:39;101175.03;;;-5.83;79.57
85772;BME280;76212;56.844;41.394;2024-02-23T00:26:05;101174.16;;;-5.86;79.19
85772;BME280;76212;56.844;41.394;2024-02-23T00:28:31;101162.97;;;-5.85;79.63
85772;BME280;76212;56.844;41.394;2024-02-23T00:30:57;101167.25;;;-5.83;79.53
85772;BME280;76212;56.844;41.394;2024-02-23T00:33:24;101162.09;;;-5.83;79.01
85772;BME280;76212;56.844;41.394;2024-02-23T00:35:50;101168.13;;;-5.82;80.01
85772;BME280;76212;56.844;41.394;2024-02-23T00:38:16;101175.00;;;-5.81;80.31
85772;BME280;76212;56.844;41.394;2024-02-23T00:40:43;101164.66;;;-5.80;79.34
85772;BME280;76212;56.844;41.394;2024-02-23T00:43:10;101081.94;;;-6.32;79.99
85772;BME280;76212;56.844;41.394;2024-02-23T00:45:37;101166.41;;;-5.88;79.61
85772;BME280;76212;56.844;41.394;2024-02-23T00:48:03;101174.16;;;-5.80;79.28
85772;BME280;76212;56.844;41.394;2024-02-23T00:50:29;101154.34;;;-5.97;80.30
85772;BME280;76212;56.844;41.394;2024-02-23T00:52:55;101186.25;;;-5.78;79.13
85772;BME280;76212;56.844;41.394;2024-02-23T00:55:21;101173.28;;;-5.84;79.40
85772;BME280;76212;56.844;41.394;2024-02-23T00:57:48;101138.81;;;-6.04;79.92
85772;BME280;76212;56.844;41.394;2024-02-23T01:00:14;101178.47;;;-5.79;79.49
85772;BME280;76212;56.844;41.394;2024-02-23T01:02:41;101187.97;;;-5.80;79.88
85772;BME280;76212;56.844;41.394;2024-02-23T01:05:07;101188.81;;;-5.79;79.39
85772;BME280;76212;56.844;41.394;2024-02-23T01:07:35;101184.50;;;-5.82;80.31
85772;BME280;76212;56.844;41.394;2024-02-23T01:10:01;101187.94;;;-5.86;79.82
85772;BME280;76212;56.844;41.394;2024-02-23T01:12:29;101138.81;;;-6.15;79.72
85772;BME280;76212;56.844;41.394;2024-02-23T01:14:56;101189.66;;;-5.89;80.34
85772;BME280;76212;56.844;41.394;2024-02-23T01:17:22;101187.94;;;-5.92;81.42
85772;BME280;76212;56.844;41.394;2024-02-23T01:19:48;101186.22;;;-5.93;81.07
85772;BME280;76212;56.844;41.394;2024-02-23T01:22:15;101191.38;;;-5.92;81.56
85772;BME280;76212;56.844;41.394;2024-02-23T01:24:41;101193.97;;;-5.92;81.35
85772;BME280;76212;56.844;41.394;2024-02-23T01:27:07;101181.06;;;-5.96;80.95
85772;BME280;76212;56.844;41.394;2024-02-23T01:29:34;101190.56;;;-5.95;80.46
85772;BME280;76212;56.844;41.394;2024-02-23T01:32:00;101185.38;;;-6.00;81.05
85772;BME280;76212;56.844;41.394;2024-02-23T01:34:27;101138.81;;;-6.26;81.27
85772;BME280;76212;56.844;41.394;2024-02-23T01:36:53;101194.88;;;-5.94;80.85
85772;BME280;76212;56.844;41.394;2024-02-23T01:39:19;101175.88;;;-6.04;80.38
85772;BME280;76212;56.844;41.394;2024-02-23T01:41:46;101198.31;;;-5.97;80.58
85772;BME280;76212;56.844;41.394;2024-02-23T01:44:12;101137.94;;;-6.28;80.30
85772;BME280;76212;56.844;41.394;2024-02-23T01:46:39;101187.13;;;-5.96;80.39
85772;BME280;76212;56.844;41.394;2024-02-23T01:49:06;101187.13;;;-5.96;81.09
85772;BME280;76212;56.844;41.394;2024-02-23T01:51:34;101189.66;;;-5.93;80.99
85772;BME280;76212;56.844;41.394;2024-02-23T01:54:01;101187.97;;;-5.94;80.20
85772;BME280;76212;56.844;41.394;2024-02-23T01:56:29;101180.22;;;-6.03;79.86
85772;BME280;76212;56.844;41.394;2024-02-23T01:58:55;101183.66;;;-5.96;79.91
85772;BME280;76212;56.844;41.394;2024-02-23T02:01:22;101189.72;;;-5.96;80.31
85772;BME280;76212;56.844;41.394;2024-02-23T02:03:48;101188.84;;;-5.98;79.88
85772;BME280;76212;56.844;41.394;2024-02-23T02:06:15;101131.03;;;-6.32;80.61
85772;BME280;76212;56.844;41.394;2024-02-23T02:08:41;101185.38;;;-5.97;79.89
85772;BME280;76212;56.844;41.394;2024-02-23T02:11:08;101064.69;;;-6.73;80.51
85772;BME280;76212;56.844;41.394;2024-02-23T02:13:34;101196.56;;;-5.96;79.85
85772;BME280;76212;56.844;41.394;2024-02-23T02:16:01;101186.22;;;-6.04;79.71
85772;BME280;76212;56.844;41.394;2024-02-23T02:18:28;101188.84;;;-5.98;80.60
85772;BME280;76212;56.844;41.394;2024-02-23T02:20:55;101193.16;;;-5.95;80.42
85772;BME280;76212;56.844;41.394;2024-02-23T02:23:23;101152.59;;;-6.27;79.72
85772;BME280;76212;56.844;41.394;2024-02-23T02:25:55;101204.34;;;-5.96;79.42
85772;BME280;76212;56.844;41.394;2024-02-23T02:28:22;101150.00;;;-6.28;79.33
85772;BME280;76212;56.844;41.394;2024-02-23T02:30:50;101206.94;;;-5.99;80.24
85772;BME280;76212;56.844;41.394;2024-02-23T02:33:16;101200.03;;;-6.05;79.49
85772;BME280;76212;56.844;41.394;2024-02-23T02:35:43;101206.06;;;-6.03;79.84
85772;BME280;76212;56.844;41.394;2024-02-23T02:38:10;101151.72;;;-6.32;79.50
85772;BME280;76212;56.844;41.394;2024-02-23T02:40:37;101169.84;;;-6.26;79.27
85772;BME280;76212;56.844;41.394;2024-02-23T02:43:04;101209.50;;;-5.99;80.24
85772;BME280;76212;56.844;41.394;2024-02-23T02:45:30;101212.09;;;-5.99;79.79
85772;BME280;76212;56.844;41.394;2024-02-23T02:47:56;101203.47;;;-6.01;79.66
85772;BME280;76212;56.844;41.394;2024-02-23T02:50:22;101205.22;;;-6.00;80.13
85772;BME280;76212;56.844;41.394;2024-02-23T02:52:49;101156.03;;;-6.31;80.13
85772;BME280;76212;56.844;41.394;2024-02-23T02:55:15;101209.53;;;-6.01;79.17
85772;BME280;76212;56.844;41.394;2024-02-23T02:57:43;101204.31;;;-6.04;79.55
85772;BME280;76212;56.844;41.394;2024-02-23T03:00:10;101206.94;;;-6.02;79.60
85772;BME280;76212;56.844;41.394;2024-02-23T03:02:37;101199.16;;;-6.04;79.05
85772;BME280;76212;56.844;41.394;2024-02-23T03:05:03;101170.72;;;-6.21;79.43
85772;BME280;76212;56.844;41.394;2024-02-23T03:07:30;101156.03;;;-6.28;79.65
85772;BME280;76212;56.844;41.394;2024-02-23T03:09:56;101211.25;;;-6.00;79.21
85772;BME280;76212;56.844;41.394;2024-02-23T03:12:23;101187.97;;;-6.10;79.68
85772;BME280;76212;56.844;41.394;2024-02-23T03:14:49;101202.63;;;-6.03;79.52
85772;BME280;76212;56.844;41.394;2024-02-23T03:17:15;101206.06;;;-6.04;79.42
85772;BME280;76212;56.844;41.394;2024-02-23T03:19:42;101211.22;;;-6.07;79.30
85772;BME280;76212;56.844;41.394;2024-02-23T03:22:08;101210.38;;;-6.08;79.89
85772;BME280;76212;56.844;41.394;2024-02-23T03:24:35;101201.75;;;-6.05;78.98
85772;BME280;76212;56.844;41.394;2024-02-23T03:27:01;101209.50;;;-6.08;79.43
85772;BME280;76212;56.844;41.394;2024-02-23T03:29:27;101200.00;;;-6.17;79.47
85772;BME280;76212;56.844;41.394;2024-02-23T03:31:57;101206.06;;;-6.07;79.00
85772;BME280;76212;56.844;41.394;2024-02-23T03:34:24;101200.00;;;-6.09;78.75
85772;BME280;76212;56.844;41.394;2024-02-23T03:36:50;101200.00;;;-6.09;79.34
85772;BME280;76212;56.844;41.394;2024-02-23T03:39:17;101215.53;;;-6.05;79.43
85772;BME280;76212;56.844;41.394;2024-02-23T03:41:43;101205.19;;;-6.11;79.71
85772;BME280;76212;56.844;41.394;2024-02-23T03:44:09;101215.53;;;-6.08;79.05
85772;BME280;76212;56.844;41.394;2024-02-23T03:46:35;101212.97;;;-6.11;79.21
85772;BME280;76212;56.844;41.394;2024-02-23T03:49:02;101214.66;;;-6.10;79.26
85772;BME280;76212;56.844;41.394;2024-02-23T03:51:28;101218.97;;;-6.09;79.25
85772;BME280;76212;56.844;41.394;2024-02-23T03:53:54;101215.53;;;-6.09;79.08
85772;BME280;76212;56.844;41.394;2024-02-23T03:56:20;101215.53;;;-6.09;79.46
85772;BME280;76212;56.844;41.394;2024-02-23T03:58:46;101219.84;;;-6.10;78.60
85772;BME280;76212;56.844;41.394;2024-02-23T04:01:13;101225.00;;;-6.11;78.72
85772;BME280;76212;56.844;41.394;2024-02-23T04:03:39;101219.81;;;-6.15;78.58
85772;BME280;76212;56.844;41.394;2024-02-23T04:06:06;101220.69;;;-6.14;78.97
85772;BME280;76212;56.844;41.394;2024-02-23T04:08:33;101216.41;;;-6.14;79.62
85772;BME280;76212;56.844;41.394;2024-02-23T04:10:59;101225.84;;;-6.14;78.66
85772;BME280;76212;56.844;41.394;2024-02-23T04:13:25;101219.81;;;-6.18;79.54
85772;BME280;76212;56.844;41.394;2024-02-23T04:15:51;101223.25;;;-6.14;78.52
85772;BME280;76212;56.844;41.394;2024-02-23T04:18:18;101224.13;;;-6.21;79.42
85772;BME280;76212;56.844;41.394;2024-02-23T04:20:44;101218.97;;;-6.21;79.36
85772;BME280;76212;56.844;41.394;2024-02-23T04:23:10;101230.16;;;-6.19;79.03
85772;BME280;76212;56.844;41.394;2024-02-23T04:25:37;101225.88;;;-6.19;78.97
85772;BME280;76212;56.844;41.394;2024-02-23T04:28:03;101232.75;;;-6.21;79.00
85772;BME280;76212;56.844;41.394;2024-02-23T04:30:30;101225.00;;;-6.21;78.90
85772;BME280;76212;56.844;41.394;2024-02-23T04:32:56;101238.78;;;-6.20;78.94
85772;BME280;76212;56.844;41.394;2024-02-23T04:35:22;101246.56;;;-6.13;79.49
85772;BME280;76212;56.844;41.394;2024-02-23T04:37:48;101243.13;;;-6.13;79.51
85772;BME280;76212;56.844;41.394;2024-02-23T04:40:15;101241.38;;;-6.13;78.50
85772;BME280;76212;56.844;41.394;2024-02-23T04:42:44;101237.06;;;-6.17;78.63
85772;BME280;76212;56.844;41.394;2024-02-23T04:45:11;101242.25;;;-6.15;78.35
85772;BME280;76212;56.844;41.394;2024-02-23T04:47:38;101247.41;;;-6.15;78.33
85772;BME280;76212;56.844;41.394;2024-02-23T04:50:06;101193.88;;;-6.50;78.50
85772;BME280;76212;56.844;41.394;2024-02-23T04:52:33;101234.44;;;-6.27;78.74
85772;BME280;76212;56.844;41.394;2024-02-23T04:54:59;101242.22;;;-6.21;79.28
85772;BME280;76212;56.844;41.394;2024-02-23T04:57:25;101244.81;;;-6.15;79.57
85772;BME280;76212;56.844;41.394;2024-02-23T04:59:51;101163.69;;;-6.66;78.74
85772;BME280;76212;56.844;41.394;2024-02-23T05:02:17;101260.34;;;-6.14;78.42
85772;BME280;76212;56.844;41.394;2024-02-23T05:04:44;101205.13;;;-6.39;78.76
85772;BME280;76212;56.844;41.394;2024-02-23T05:07:10;101246.56;;;-6.06;79.11
85772;BME280;76212;56.844;41.394;2024-02-23T05:09:37;101245.69;;;-6.07;78.62
85772;BME280;76212;56.844;41.394;2024-02-23T05:12:03;101254.31;;;-6.13;78.83
85772;BME280;76212;56.844;41.394;2024-02-23T05:14:30;101199.09;;;-6.41;78.61
85772;BME280;76212;56.844;41.394;2024-02-23T05:16:57;101228.47;;;-6.19;78.82
85772;BME280;76212;56.844;41.394;2024-02-23T05:19:23;101249.13;;;-6.13;78.36
85772;BME280;76212;56.844;41.394;2024-02-23T05:21:50;101241.38;;;-6.16;78.64
85772;BME280;76212;56.844;41.394;2024-02-23T05:24:16;101248.31;;;-6.05;79.04
85772;BME280;76212;56.844;41.394;2024-02-23T05:26:42;101251.75;;;-6.00;78.31
85772;BME280;76212;56.844;41.394;2024-02-23T05:29:10;101214.63;;;-6.27;78.66
85772;BME280;76212;56.844;41.394;2024-02-23T05:31:47;101250.88;;;-6.04;78.76
85772;BME280;76212;56.844;41.394;2024-02-23T05:34:14;101250.00;;;-6.01;78.60
85772;BME280;76212;56.844;41.394;2024-02-23T05:36:42;101209.44;;;-6.30;78.30
85772;BME280;76212;56.844;41.394;2024-02-23T05:39:09;101211.19;;;-6.24;77.99
85772;BME280;76212;56.844;41.394;2024-02-23T05:41:36;101264.69;;;-5.93;78.34
85772;BME280;76212;56.844;41.394;2024-02-23T05:44:03;101255.19;;;-5.87;78.22
85772;BME280;76212;56.844;41.394;2024-02-23T05:46:35;101259.50;;;-5.82;77.89
85772;BME280;76212;56.844;41.394;2024-02-23T05:49:02;101265.53;;;-5.81;77.30
85772;BME280;76212;56.844;41.394;2024-02-23T05:51:30;101262.97;;;-5.77;77.00
85772;BME280;76212;56.844;41.394;2024-02-23T05:53:57;101264.69;;;-5.77;77.92
85772;BME280;76212;56.844;41.394;2024-02-23T05:56:24;101254.34;;;-5.85;77.74
85772;BME280;76212;56.844;41.394;2024-02-23T05:58:53;101268.16;;;-5.77;77.38
85772;BME280;76212;56.844;41.394;2024-02-23T06:01:20;101246.59;;;-5.82;77.41
85772;BME280;76212;56.844;41.394;2024-02-23T06:03:46;101278.50;;;-5.71;77.70
85772;BME280;76212;56.844;41.394;2024-02-23T06:06:13;101264.69;;;-5.71;77.34
85772;BME280;76212;56.844;41.394;2024-02-23T06:08:40;101283.69;;;-5.61;77.21
85772;BME280;76212;56.844;41.394;2024-02-23T06:11:06;101261.28;;;-5.67;76.55
85772;BME280;76212;56.844;41.394;2024-02-23T06:13:33;101262.97;;;-5.69;76.71
85772;BME280;76212;56.844;41.394;2024-02-23T06:16:00;101231.06;;;-5.82;76.35
85772;BME280;76212;56.844;41.394;2024-02-23T06:18:26;101275.94;;;-5.48;76.59
85772;BME280;76212;56.844;41.394;2024-02-23T06:20:52;101285.44;;;-5.54;76.75
85772;BME280;76212;56.844;41.394;2024-02-23T06:23:19;101285.44;;;-5.43;76.44
85772;BME280;76212;56.844;41.394;2024-02-23T06:25:45;101281.97;;;-5.41;77.06
85772;BME280;76212;56.844;41.394;2024-02-23T06:28:11;101288.03;;;-5.33;76.81
85772;BME280;76212;56.844;41.394;2024-02-23T06:30:38;101282.00;;;-5.36;75.93
85772;BME280;76212;56.844;41.394;2024-02-23T06:33:05;101292.34;;;-5.32;75.83
85772;BME280;76212;56.844;41.394;2024-02-23T06:35:32;101258.69;;;-5.47;75.55
85772;BME280;76212;56.844;41.394;2024-02-23T06:37:58;101292.34;;;-5.32;76.07
85772;BME280;76212;56.844;41.394;2024-02-23T06:40:24;101285.44;;;-5.17;76.22
85772;BME280;76212;56.844;41.394;2024-02-23T06:42:51;101288.03;;;-5.08;75.92
85772;BME280;76212;56.844;41.394;2024-02-23T06:45:17;101256.94;;;-5.25;75.60
85772;BME280;76212;56.844;41.394;2024-02-23T06:47:45;101294.91;;;-4.92;75.56
85772;BME280;76212;56.844;41.394;2024-02-23T06:50:11;101265.59;;;-5.18;75.70
85772;BME280;76212;56.844;41.394;2024-02-23T06:52:37;101287.13;;;-4.99;75.05
85772;BME280;76212;56.844;41.394;2024-02-23T06:55:04;101246.56;;;-5.14;74.80
85772;BME280;76212;56.844;41.394;2024-02-23T06:57:30;101297.47;;;-4.76;75.66
85772;BME280;76212;56.844;41.394;2024-02-23T06:59:57;101302.63;;;-4.69;75.14
85772;BME280;76212;56.844;41.394;2024-02-23T07:02:24;101293.13;;;-4.68;74.88
85772;BME280;76212;56.844;41.394;2024-02-23T07:04:50;101295.69;;;-4.59;74.09
85772;BME280;76212;56.844;41.394;2024-02-23T07:07:16;101297.41;;;-4.58;74.99
85772;BME280;76212;56.844;41.394;2024-02-23T07:09:42;101295.69;;;-4.54;73.75
85772;BME280;76212;56.844;41.394;2024-02-23T07:12:09;101298.22;;;-4.45;73.83
85772;BME280;76212;56.844;41.394;2024-02-23T07:14:37;101224.91;;;-4.78;74.23
85772;BME280;76212;56.844;41.394;2024-02-23T07:17:04;101296.50;;;-4.42;73.58
85772;BME280;76212;56.844;41.394;2024-02-23T07:19:30;101246.44;;;-4.57;74.12
85772;BME280;76212;56.844;41.394;2024-02-23T07:21:56;101297.31;;;-4.26;73.54
85772;BME280;76212;56.844;41.394;2024-02-23T07:24:23;101305.97;;;-4.31;73.76
85772;BME280;76212;56.844;41.394;2024-02-23T07:26:49;101302.50;;;-4.27;73.36
85772;BME280;76212;56.844;41.394;2024-02-23T07:29:15;101302.47;;;-4.18;73.47
85772;BME280;76212;56.844;41.394;2024-02-23T07:31:41;101292.13;;;-4.21;73.24
85772;BME280;76212;56.844;41.394;2024-02-23T07:34:08;101303.28;;;-4.05;73.30
85772;BME280;76212;56.844;41.394;2024-02-23T07:36:34;101306.66;;;-3.91;72.93
85772;BME280;76212;56.844;41.394;2024-02-23T07:39:01;101300.56;;;-3.88;72.53
85772;BME280;76212;56.844;41.394;2024-02-23T07:41:27;101260.06;;;-4.12;72.38
85772;BME280;76212;56.844;41.394;2024-02-23T07:43:53;101312.63;;;-3.78;71.85
85772;BME280;76212;56.844;41.394;2024-02-23T07:46:20;101269.53;;;-4.07;72.45
85772;BME280;76212;56.844;41.394;2024-02-23T07:48:48;101204.03;;;-4.46;71.67
85772;BME280;76212;56.844;41.394;2024-02-23T07:51:14;101313.53;;;-3.84;72.37
85772;BME280;76212;56.844;41.394;2024-02-23T07:53:40;101316.06;;;-3.72;71.75
85772;BME280;76212;56.844;41.394;2024-02-23T07:56:09;101315.19;;;-3.74;72.13
85772;BME280;76212;56.844;41.394;2024-02-23T07:58:36;101321.34;;;-3.91;72.10
85772;BME280;76212;56.844;41.394;2024-02-23T08:01:02;101315.28;;;-3.89;72.33
85772;BME280;76212;56.844;41.394;2024-02-23T08:03:28;101310.06;;;-3.83;72.58
85772;BME280;76212;56.844;41.394;2024-02-23T08:05:55;101207.44;;;-4.33;72.37
85772;BME280;76212;56.844;41.394;2024-02-23T08:08:21;101312.53;;;-3.61;72.45
85772;BME280;76212;56.844;41.394;2024-02-23T08:10:49;101204.72;;;-4.10;71.48
85772;BME280;76212;56.844;41.394;2024-02-23T08:13:16;101262.56;;;-3.92;71.41
85772;BME280;76212;56.844;41.394;2024-02-23T08:15:43;101335.06;;;-3.62;70.97
85772;BME280;76212;56.844;41.394;2024-02-23T08:18:10;101266.00;;;-3.92;70.78
85772;BME280;76212;56.844;41.394;2024-02-23T08:20:36;101329.81;;;-3.56;71.29
85772;BME280;76212;56.844;41.394;2024-02-23T08:23:03;101336.72;;;-3.52;70.46
85772;BME280;76212;56.844;41.394;2024-02-23T08:25:29;101336.63;;;-3.42;70.67
85772;BME280;76212;56.844;41.394;2024-02-23T08:27:56;101316.78;;;-3.46;71.18
85772;BME280;76212;56.844;41.394;2024-02-23T08:30:22;101252.03;;;-3.76;70.09
85772;BME280;76212;56.844;41.394;2024-02-23T08:32:49;101337.34;;;-3.22;70.70
85772;BME280;76212;56.844;41.394;2024-02-23T08:35:15;101322.50;;;-3.06;69.79
85772;BME280;76212;56.844;41.394;2024-02-23T08:37:42;101334.59;;;-3.00;69.74
85772;BME280;76212;56.844;41.394;2024-02-23T08:40:09;101341.50;;;-2.99;70.35
85772;BME280;76212;56.844;41.394;2024-02-23T08:42:35;101341.44;;;-2.93;69.62
85772;BME280;76212;56.844;41.394;2024-02-23T08:45:01;101293.16;;;-3.17;69.47
85772;BME280;76212;56.844;41.394;2024-02-23T08:47:28;101339.69;;;-2.91;69.77
85772;BME280;76212;56.844;41.394;2024-02-23T08:49:59;101338.03;;;-2.95;69.31
85772;BME280;76212;56.844;41.394;2024-02-23T08:52:25;101346.78;;;-3.05;70.03
85772;BME280;76212;56.844;41.394;2024-02-23T08:54:52;101354.59;;;-3.10;70.48
85772;BME280;76212;56.844;41.394;2024-02-23T08:57:18;101305.44;;;-3.36;69.82
85772;BME280;76212;56.844;41.394;2024-02-23T08:59:46;101342.50;;;-3.13;70.40
85772;BME280;76212;56.844;41.394;2024-02-23T09:02:13;101350.16;;;-2.99;69.82
85772;BME280;76212;56.844;41.394;2024-02-23T09:04:39;101357.88;;;-2.88;69.99
85772;BME280;76212;56.844;41.394;2024-02-23T09:07:06;101353.56;;;-2.89;70.09
85772;BME280;76212;56.844;41.394;2024-02-23T09:09:32;101363.94;;;-2.89;70.00
85772;BME280;76212;56.844;41.394;2024-02-23T09:11:58;101306.97;;;-3.12;70.27
85772;BME280;76212;56.844;41.394;2024-02-23T09:14:25;101313.91;;;-3.14;70.06
85772;BME280;76212;56.844;41.394;2024-02-23T09:16:51;101353.56;;;-2.89;69.93
85772;BME280;76212;56.844;41.394;2024-02-23T09:19:19;101348.34;;;-2.88;69.80
85772;BME280;76212;56.844;41.394;2024-02-23T09:21:47;101348.22;;;-2.74;69.54
85772;BME280;76212;56.844;41.394;2024-02-23T09:24:13;101334.38;;;-2.76;69.85
85772;BME280;76212;56.844;41.394;2024-02-23T09:26:40;101359.50;;;-2.76;69.10
85772;BME280;76212;56.844;41.394;2024-02-23T09:29:07;101359.56;;;-2.82;69.96
85772;BME280;76212;56.844;41.394;2024-02-23T09:31:33;101305.28;;;-3.18;70.42
85772;BME280;76212;56.844;41.394;2024-02-23T09:33:59;101369.16;;;-2.88;70.38
85772;BME280;76212;56.844;41.394;2024-02-23T09:36:26;101345.84;;;-3.01;70.71
85772;BME280;76212;56.844;41.394;2024-02-23T09:38:52;101352.81;;;-3.05;71.03
85772;BME280;76212;56.844;41.394;2024-02-23T09:41:20;101370.97;;;-3.00;70.85
85772;BME280;76212;56.844;41.394;2024-02-23T09:43:48;101371.75;;;-2.91;70.54
85772;BME280;76212;56.844;41.394;2024-02-23T09:46:16;101326.03;;;-3.15;70.44
85772;BME280;76212;56.844;41.394;2024-02-23T09:48:43;101372.47;;;-2.73;70.60
85772;BME280;76212;56.844;41.394;2024-02-23T09:51:14;101327.56;;;-2.88;69.92
85772;BME280;76212;56.844;41.394;2024-02-23T09:53:41;101373.97;;;-2.48;70.14
85772;BME280;76212;56.844;41.394;2024-02-23T09:56:11;101373.03;;;-2.41;69.69
85772;BME280;76212;56.844;41.394;2024-02-23T09:58:37;101376.47;;;-2.40;69.07
85772;BME280;76212;56.844;41.394;2024-02-23T10:01:05;101378.28;;;-2.44;68.85
85772;BME280;76212;56.844;41.394;2024-02-23T10:03:31;101280.81;;;-2.92;69.15
85772;BME280;76212;56.844;41.394;2024-02-23T10:05:58;101375.44;;;-2.24;69.00
85772;BME280;76212;56.844;41.394;2024-02-23T10:08:28;101378.03;;;-2.24;68.16
85772;BME280;76212;56.844;41.394;2024-02-23T10:10:57;101382.38;;;-2.23;68.24
85772;BME280;76212;56.844;41.394;2024-02-23T10:13:23;101379.75;;;-2.21;68.71
85772;BME280;76212;56.844;41.394;2024-02-23T10:15:50;101385.66;;;-2.05;68.40
85772;BME280;76212;56.844;41.394;2024-02-23T10:18:17;101377.13;;;-2.20;67.85
85772;BME280;76212;56.844;41.394;2024-02-23T10:20:44;101343.56;;;-2.43;67.85
85772;BME280;76212;56.844;41.394;2024-02-23T10:23:10;101340.97;;;-2.43;67.99
85772;BME280;76212;56.844;41.394;2024-02-23T10:25:37;101359.09;;;-2.33;68.14
85772;BME280;76212;56.844;41.394;2024-02-23T10:28:05;101355.59;;;-2.31;68.32
85772;BME280;76212;56.844;41.394;2024-02-23T10:30:32;101371.84;;;-2.13;68.35
85772;BME280;76212;56.844;41.394;2024-02-23T10:32:59;101371.16;;;-2.28;67.76
85772;BME280;76212;56.844;41.394;2024-02-23T10:35:26;101366.84;;;-2.30;68.45
85772;BME280;76212;56.844;41.394;2024-02-23T10:37:57;101382.44;;;-2.29;68.41
85772;BME280;76212;56.844;41.394;2024-02-23T10:40:24;101377.22;;;-2.26;68.79
85772;BME280;76212;56.844;41.394;2024-02-23T10:42:55;101382.16;;;-2.03;68.42
85772;BME280;76212;56.844;41.394;2024-02-23T10:45:22;101377.81;;;-2.02;67.58
85772;BME280;76212;56.844;41.394;2024-02-23T10:47:50;101361.91;;;-1.81;67.64
85772;BME280;76212;56.844;41.394;2024-02-23T10:50:18;101366.13;;;-1.69;66.57
85772;BME280;76212;56.844;41.394;2024-02-23T10:52:46;101344.72;;;-1.94;67.17
85772;BME280;76212;56.844;41.394;2024-02-23T10:55:15;101362.72;;;-1.74;66.87
85772;BME280;76212;56.844;41.394;2024-02-23T10:57:43;101369.69;;;-1.78;66.72
85772;BME280;76212;56.844;41.394;2024-02-23T11:00:10;101372.47;;;-1.91;66.86
85772;BME280;76212;56.844;41.394;2024-02-23T11:02:49;101380.28;;;-1.93;67.35
85772;BME280;76212;56.844;41.394;2024-02-23T11:05:18;101323.38;;;-2.21;66.78
85772;BME280;76212;56.844;41.394;2024-02-23T11:07:48;101332.19;;;-2.34;67.29
85772;BME280;76212;56.844;41.394;2024-02-23T11:10:17;101376.97;;;-2.04;67.89
85772;BME280;76212;56.844;41.394;2024-02-23T11:12:45;101377.97;;;-2.17;68.45
85772;BME280;76212;56.844;41.394;2024-02-23T11:15:28;101384.09;;;-2.20;68.16
85772;BME280;76212;56.844;41.394;2024-02-23T11:17:55;101381.44;;;-2.19;69.01
85772;BME280;76212;56.844;41.394;2024-02-23T11:20:21;101346.84;;;-2.25;68.66
85772;BME280;76212;56.844;41.394;2024-02-23T11:22:52;101349.41;;;-2.21;68.44
85772;BME280;76212;56.844;41.394;2024-02-23T11:25:26;101363.13;;;-2.08;68.43
85772;BME280;76212;56.844;41.394;2024-02-23T11:27:53;101389.16;;;-2.11;67.86
85772;BME280;76212;56.844;41.394;2024-02-23T11:30:19;101395.31;;;-2.15;68.55
85772;BME280;76212;56.844;41.394;2024-02-23T11:32:47;101400.63;;;-2.29;68.94
85772;BME280;76212;56.844;41.394;2024-02-23T11:35:15;101398.94;;;-2.30;68.90
85772;BME280;76212;56.844;41.394;2024-02-23T11:37:55;101413.53;;;-2.15;69.07
85772;BME280;76212;56.844;41.394;2024-02-23T11:40:32;101404.81;;;-2.14;68.26
85772;BME280;76212;56.844;41.394;2024-02-23T11:42:58;101310.09;;;-2.78;69.15
85772;BME280;76212;56.844;41.394;2024-02-23T11:45:28;101402.41;;;-2.32;68.90
85772;BME280;76212;56.844;41.394;2024-02-23T11:47:55;101406.63;;;-2.19;68.96
85772;BME280;76212;56.844;41.394;2024-02-23T11:50:22;101407.53;;;-2.23;69.30
85772;BME280;76212;56.844;41.394;2024-02-23T11:52:48;101417.19;;;-2.33;69.75
85772;BME280;76212;56.844;41.394;2024-02-23T11:55:21;101401.50;;;-2.27;70.13
85772;BME280;76212;56.844;41.394;2024-02-23T11:57:48;101329.97;;;-2.71;69.46
85772;BME280;76212;56.844;41.394;2024-02-23T12:00:15;101407.50;;;-2.20;69.67
85772;BME280;76212;56.844;41.394;2024-02-23T12:02:43;101414.41;;;-2.17;69.56
85772;BME280;76212;56.844;41.394;2024-02-23T12:05:10;101410.16;;;-2.25;69.58
85772;BME280;76212;56.844;41.394;2024-02-23T12:07:36;101411.78;;;-2.16;69.88
85772;BME280;76212;56.844;41.394;2024-02-23T12:10:03;101379.06;;;-2.37;70.17
85772;BME280;76212;56.844;41.394;2024-02-23T12:12:30;101414.41;;;-2.17;69.87
85772;BME280;76212;56.844;41.394;2024-02-23T12:14:56;101410.19;;;-2.28;70.32
85772;BME280;76212;56.844;41.394;2024-02-23T12:17:22;101364.53;;;-2.56;70.16
85772;BME280;76212;56.844;41.394;2024-02-23T12:19:49;101376.44;;;-2.37;69.89
85772;BME280;76212;56.844;41.394;2024-02-23T12:22:15;101385.84;;;-2.22;70.06
85772;BME280;76212;56.844;41.394;2024-02-23T12:24:42;101354.06;;;-2.52;70.19
85772;BME280;76212;56.844;41.394;2024-02-23T12:27:09;101399.00;;;-2.36;70.60
85772;BME280;76212;56.844;41.394;2024-02-23T12:29:35;101396.53;;;-2.50;70.57
85772;BME280;76212;56.844;41.394;2024-02-23T12:32:05;101419.06;;;-2.49;70.51
85772;BME280;76212;56.844;41.394;2024-02-23T12:34:32;101412.19;;;-2.57;71.11
85772;BME280;76212;56.844;41.394;2024-02-23T12:36:59;101417.41;;;-2.57;70.71
85772;BME280;76212;56.844;41.394;2024-02-23T12:39:25;101363.88;;;-2.81;71.09